Time;durP1;ratioP1;P1;durP2;ratioP2;P2;SDS_P1;SDS_P2;PMS_P1;PMS_P2;Temp;Humidity;BMP_temperature;BMP_pressure;BME280_temperature;BME280_humidity;BME280_pressure;Samples;Min_cycle;Max_cycle;Signal;HPM_P1;HPM_P2
2022/01/24 00:01:04;;;;;;;17.43;7.70;;;;;5.80;102881.00;;;;5042267;28;20223;-72
2022/01/24 00:03:56;;;;;;;14.77;7.50;;;;;5.80;102888.00;;;;5038737;28;20292;-71
2022/01/24 00:06:42;;;;;;;13.23;6.53;;;;;5.70;102883.00;;;;5040423;28;20282;-71
2022/01/24 00:09:29;;;;;;;15.67;6.93;;;;;5.80;102889.00;;;;5039199;28;20851;-71
2022/01/24 00:12:19;;;;;;;12.70;6.30;;;;;5.80;102880.00;;;;5041340;28;20283;-71
2022/01/24 00:15:16;;;;;;;12.07;6.57;;;;;5.80;102876.00;;;;5043381;28;20320;-71
2022/01/24 00:18:09;;;;;;;15.37;6.27;;;;;5.80;102881.00;;;;5038287;28;20223;-71
2022/01/24 00:27:04;;;;;;;14.90;6.03;;;;;5.80;102877.00;;;;5034064;28;20303;-71
2022/01/24 00:29:51;;;;;;;10.93;6.13;;;;;5.80;102876.00;;;;5045152;28;20236;-72
2022/01/24 00:32:37;;;;;;;11.23;5.77;;;;;5.80;102868.00;;;;5039588;28;20229;-70
2022/01/24 00:35:25;;;;;;;11.80;6.00;;;;;5.80;102881.00;;;;5041409;28;20306;-72
2022/01/24 00:38:11;;;;;;;11.90;6.00;;;;;5.70;102876.00;;;;5043832;28;20707;-67
2022/01/24 00:40:57;;;;;;;10.13;5.90;;;;;5.70;102879.00;;;;5061259;28;20236;-68
2022/01/24 00:43:57;;;;;;;12.33;5.70;;;;;5.70;102876.00;;;;5047100;28;20236;-72
2022/01/24 00:46:50;;;;;;;10.90;5.83;;;;;5.70;102882.00;;;;5040059;28;20224;-70
2022/01/24 00:49:49;;;;;;;11.57;5.33;;;;;5.70;102880.00;;;;5037080;28;20239;-72
2022/01/24 00:55:41;;;;;;;14.03;6.20;;;;;5.70;102870.00;;;;5049594;28;20314;-71
2022/01/24 00:58:27;;;;;;;13.10;5.83;;;;;5.70;102879.00;;;;5051026;28;20228;-69
2022/01/24 01:01:13;;;;;;;12.77;5.23;;;;;5.70;102877.00;;;;5053088;28;20227;-71
2022/01/24 01:04:00;;;;;;;9.53;5.70;;;;;5.70;102875.00;;;;5048169;28;20240;-71
2022/01/24 01:06:47;;;;;;;9.70;5.60;;;;;5.60;102873.00;;;;5046961;28;20802;-72
2022/01/24 01:18:46;;;;;;;10.00;5.83;;;;;5.70;102869.00;;;;5009007;28;20227;-71
2022/01/24 01:21:33;;;;;;;9.73;5.93;;;;;5.70;102865.00;;;;5042792;28;20367;-71
2022/01/24 01:24:21;;;;;;;10.97;5.50;;;;;5.60;102857.00;;;;5047423;28;20306;-71
2022/01/24 01:27:13;;;;;;;9.50;5.37;;;;;5.70;102866.00;;;;5050418;28;20248;-75
2022/01/24 01:30:04;;;;;;;12.03;5.43;;;;;5.70;102875.00;;;;5050048;28;20247;-71
2022/01/24 01:33:05;;;;;;;10.07;5.50;;;;;5.60;102873.00;;;;5053117;28;20227;-71
2022/01/24 01:36:04;;;;;;;10.20;5.37;;;;;5.60;102874.00;;;;5042646;28;20275;-71
2022/01/24 01:54:57;;;;;;;11.00;5.47;;;;;5.60;102859.00;;;;5049375;28;20994;-73
2022/01/24 01:57:43;;;;;;;8.97;5.17;;;;;5.60;102859.00;;;;5038158;28;20228;-72
2022/01/24 02:00:32;;;;;;;9.50;4.80;;;;;5.50;102859.00;;;;5051026;28;20254;-70
2022/01/24 02:03:18;;;;;;;10.33;5.67;;;;;5.50;102859.00;;;;5053360;28;20244;-73
2022/01/24 02:06:05;;;;;;;9.93;5.13;;;;;5.50;102847.00;;;;5046062;28;20993;-72
2022/01/24 02:08:58;;;;;;;10.63;5.10;;;;;5.50;102837.00;;;;5051252;28;20343;-73
2022/01/24 02:11:47;;;;;;;9.33;4.73;;;;;5.60;102848.00;;;;5047041;28;20233;-72
2022/01/24 02:14:37;;;;;;;9.67;5.37;;;;;5.60;102844.00;;;;5046536;28;20252;-72
2022/01/24 02:17:35;;;;;;;11.00;5.03;;;;;5.60;102835.00;;;;5048350;28;20232;-72
2022/01/24 02:20:39;;;;;;;7.43;4.70;;;;;5.50;102833.00;;;;5051881;28;20244;-71
2022/01/24 02:23:41;;;;;;;10.03;5.20;;;;;5.50;102842.00;;;;5045718;28;20723;-72
2022/01/24 02:26:28;;;;;;;9.73;4.67;;;;;5.50;102843.00;;;;5044150;28;20271;-71
2022/01/24 02:29:23;;;;;;;10.40;5.37;;;;;5.50;102836.00;;;;5050354;28;20235;-71
2022/01/24 02:32:11;;;;;;;10.20;5.10;;;;;5.50;102831.00;;;;5048375;28;20231;-71
2022/01/24 02:34:57;;;;;;;11.83;4.70;;;;;5.50;102830.00;;;;5042330;28;20358;-72
2022/01/24 02:37:43;;;;;;;10.37;4.93;;;;;5.50;102831.00;;;;5053045;28;20223;-73
2022/01/24 02:40:31;;;;;;;7.53;4.43;;;;;5.50;102828.00;;;;5049449;28;20240;-71
2022/01/24 02:49:35;;;;;;;8.17;4.50;;;;;5.50;102828.00;;;;5045307;28;20248;-71
2022/01/24 02:52:25;;;;;;;8.00;4.73;;;;;5.50;102829.00;;;;5038388;28;20711;-71
2022/01/24 02:55:11;;;;;;;6.63;4.40;;;;;5.40;102818.00;;;;5060494;28;20658;-71
2022/01/24 02:57:58;;;;;;;7.30;4.30;;;;;5.50;102821.00;;;;5042233;28;20228;-72
2022/01/24 03:00:46;;;;;;;8.07;4.63;;;;;5.40;102812.00;;;;5045184;28;20232;-71
2022/01/24 03:03:33;;;;;;;8.57;4.80;;;;;5.50;102826.00;;;;5050502;28;20707;-73
2022/01/24 03:06:20;;;;;;;11.37;4.60;;;;;5.40;102828.00;;;;5052728;28;20227;-72
2022/01/24 03:09:07;;;;;;;8.07;4.47;;;;;5.40;102825.00;;;;5052117;28;20228;-72
2022/01/24 03:12:04;;;;;;;6.57;3.90;;;;;5.40;102821.00;;;;5040023;28;20225;-71
2022/01/24 03:14:52;;;;;;;10.03;5.20;;;;;5.40;102820.00;;;;5042036;28;20587;-71
2022/01/24 03:17:39;;;;;;;11.63;5.03;;;;;5.40;102818.00;;;;5044418;28;20239;-71
2022/01/24 03:20:25;;;;;;;10.30;4.60;;;;;5.40;102806.00;;;;5051140;28;20607;-70
2022/01/24 03:23:12;;;;;;;8.30;4.47;;;;;5.50;102811.00;;;;5048594;28;20225;-70
2022/01/24 03:25:58;;;;;;;8.60;4.57;;;;;5.40;102803.00;;;;5032922;28;20279;-69
2022/01/24 03:28:45;;;;;;;9.07;4.33;;;;;5.40;102805.00;;;;5039668;28;20275;-72
2022/01/24 03:31:33;;;;;;;8.53;4.83;;;;;5.40;102788.00;;;;5063390;28;20263;-71
2022/01/24 03:34:20;;;;;;;8.50;4.87;;;;;5.50;102799.00;;;;5062431;28;20231;-70
2022/01/24 03:37:06;;;;;;;9.00;4.53;;;;;5.40;102800.00;;;;5048908;28;20224;-71
2022/01/24 03:39:52;;;;;;;8.17;4.70;;;;;5.40;102794.00;;;;5058586;28;20232;-72
2022/01/24 03:42:38;;;;;;;9.73;4.50;;;;;5.40;102767.00;;;;5050451;28;20356;-70
2022/01/24 03:45:37;;;;;;;10.70;4.93;;;;;5.40;102802.00;;;;5053416;28;20236;-71
2022/01/24 03:48:37;;;;;;;7.70;4.90;;;;;5.50;102802.00;;;;5051235;28;20351;-70
2022/01/24 03:51:24;;;;;;;8.33;5.00;;;;;5.50;102799.00;;;;5057583;28;20236;-72
2022/01/24 03:54:11;;;;;;;7.67;4.37;;;;;5.50;102795.00;;;;5058756;28;20244;-71
2022/01/24 03:56:57;;;;;;;8.90;4.57;;;;;5.40;102797.00;;;;5049789;28;20370;-69
2022/01/24 03:59:43;;;;;;;7.27;4.20;;;;;5.40;102800.00;;;;5050173;28;20256;-72
2022/01/24 04:02:29;;;;;;;10.53;4.50;;;;;5.40;102800.00;;;;5052556;28;20710;-71
2022/01/24 04:05:17;;;;;;;11.90;5.30;;;;;5.40;102799.00;;;;5050376;28;20259;-71
2022/01/24 04:08:04;;;;;;;8.37;5.20;;;;;5.40;102802.00;;;;5046751;28;20689;-71
2022/01/24 04:10:54;;;;;;;9.00;5.13;;;;;5.40;102806.00;;;;5046394;28;20240;-72
2022/01/24 04:13:43;;;;;;;7.13;4.33;;;;;5.40;102804.00;;;;5048168;28;20605;-73
2022/01/24 04:16:32;;;;;;;9.60;4.90;;;;;5.30;102798.00;;;;5058713;28;20255;-72
2022/01/24 04:21:17;;;;;;;10.10;4.13;;;;;5.30;102810.00;;;;5054838;28;20355;-71
2022/01/24 04:22:31;;;;;;;10.00;4.70;;;;;5.40;102821.00;;;;5050571;28;20267;-72
2022/01/24 04:25:22;;;;;;;8.07;4.90;;;;;5.40;102816.00;;;;5057461;28;20223;-72
2022/01/24 04:28:10;;;;;;;10.23;5.27;;;;;5.40;102797.00;;;;5042632;28;20224;-71
2022/01/24 04:30:56;;;;;;;7.37;4.63;;;;;5.40;102789.00;;;;5048325;28;20251;-71
2022/01/24 04:33:43;;;;;;;8.07;5.07;;;;;5.40;102799.00;;;;5047320;28;20228;-72
2022/01/24 04:36:29;;;;;;;11.13;5.83;;;;;5.40;102782.00;;;;5050635;28;20231;-69
2022/01/24 04:39:18;;;;;;;8.40;5.30;;;;;5.40;102796.00;;;;5047306;28;20773;-70
2022/01/24 04:42:09;;;;;;;8.07;5.23;;;;;5.40;102796.00;;;;5041592;28;20233;-71
2022/01/24 04:45:11;;;;;;;10.17;5.70;;;;;5.40;102797.00;;;;5041094;28;20363;-71
2022/01/24 04:51:10;;;;;;;9.03;5.00;;;;;5.40;102806.00;;;;5040865;28;20678;-71
2022/01/24 04:56:58;;;;;;;9.63;4.67;;;;;5.40;102801.00;;;;5047154;28;20319;-71
2022/01/24 04:59:47;;;;;;;9.03;4.30;;;;;5.40;102806.00;;;;5050293;28;20307;-71
2022/01/24 05:02:34;;;;;;;7.73;4.80;;;;;5.40;102801.00;;;;5052516;28;20255;-72
2022/01/24 05:05:22;;;;;;;9.97;4.30;;;;;5.40;102807.00;;;;5049822;28;20271;-70
2022/01/24 05:08:09;;;;;;;11.43;4.77;;;;;5.30;102812.00;;;;5056264;28;20227;-71
2022/01/24 05:11:03;;;;;;;7.67;4.43;;;;;5.30;102809.00;;;;5040732;28;20259;-71
2022/01/24 05:26:10;;;;;;;9.30;4.93;;;;;5.30;102801.00;;;;5049373;28;20347;-71
2022/01/24 05:28:58;;;;;;;7.30;5.00;;;;;5.30;102802.00;;;;5051433;28;20865;-70
2022/01/24 05:31:44;;;;;;;10.37;5.03;;;;;5.30;102798.00;;;;5047360;28;20590;-71
2022/01/24 05:34:31;;;;;;;10.07;5.40;;;;;5.30;102794.00;;;;5045426;28;20286;-70
2022/01/24 05:37:17;;;;;;;8.40;5.23;;;;;5.30;102793.00;;;;5048089;28;20304;-70
2022/01/24 05:40:04;;;;;;;8.67;5.30;;;;;5.30;102794.00;;;;5042462;28;20310;-70
2022/01/24 05:42:51;;;;;;;10.13;5.37;;;;;5.40;102784.00;;;;5051028;28;20232;-71
2022/01/24 05:45:38;;;;;;;8.10;5.20;;;;;5.30;102792.00;;;;5047608;28;20313;-72
2022/01/24 05:48:25;;;;;;;8.73;5.20;;;;;5.30;102797.00;;;;5049707;28;20239;-71
2022/01/24 05:51:11;;;;;;;9.60;5.67;;;;;5.50;102781.00;;;;5045290;28;20248;-72
2022/01/24 05:53:58;;;;;;;9.47;5.37;;;;;5.40;102794.00;;;;5039853;28;20236;-71
2022/01/24 05:56:44;;;;;;;9.37;6.10;;;;;5.30;102797.00;;;;5045442;28;20302;-71
2022/01/24 05:59:31;;;;;;;10.83;5.90;;;;;5.30;102807.00;;;;5036311;28;20357;-70
2022/01/24 06:02:18;;;;;;;8.27;5.23;;;;;5.30;102809.00;;;;5037357;28;20352;-72
2022/01/24 06:05:05;;;;;;;7.57;5.13;;;;;5.30;102811.00;;;;5046138;28;20302;-70
2022/01/24 06:07:54;;;;;;;9.13;5.27;;;;;5.30;102805.00;;;;5055925;28;20303;-70
2022/01/24 06:10:40;;;;;;;8.27;5.33;;;;;5.30;102803.00;;;;5045592;28;20236;-71
2022/01/24 06:13:27;;;;;;;12.03;6.37;;;;;5.30;102804.00;;;;5052347;28;20282;-70
2022/01/24 06:16:14;;;;;;;11.27;5.80;;;;;5.30;102799.00;;;;5056899;28;20270;-71
2022/01/24 06:19:02;;;;;;;8.93;5.80;;;;;5.40;102798.00;;;;5049770;28;20232;-71
2022/01/24 06:21:48;;;;;;;9.77;5.97;;;;;5.40;102801.00;;;;5034189;28;20287;-72
2022/01/24 06:24:34;;;;;;;9.57;5.87;;;;;5.30;102793.00;;;;5056832;28;20610;-74
2022/01/24 06:27:33;;;;;;;9.93;5.87;;;;;5.40;102799.00;;;;5052406;28;20236;-72
2022/01/24 06:30:20;;;;;;;9.37;5.70;;;;;5.30;102796.00;;;;5050265;28;20809;-72
2022/01/24 06:33:07;;;;;;;11.27;6.30;;;;;5.40;102792.00;;;;5040502;28;20812;-74
2022/01/24 06:35:54;;;;;;;8.67;5.70;;;;;5.30;102795.00;;;;5043199;28;20295;-72
2022/01/24 06:38:41;;;;;;;8.90;5.20;;;;;5.30;102798.00;;;;5048295;28;20719;-71
2022/01/24 06:41:31;;;;;;;7.83;5.57;;;;;5.30;102796.00;;;;5053396;28;20325;-72
2022/01/24 06:44:18;;;;;;;11.17;5.43;;;;;5.30;102802.00;;;;5049378;28;20231;-72
2022/01/24 06:47:05;;;;;;;10.77;5.60;;;;;5.30;102793.00;;;;5058228;28;20228;-71
2022/01/24 06:49:52;;;;;;;11.77;5.23;;;;;5.30;102793.00;;;;5054179;28;20235;-72
2022/01/24 06:52:40;;;;;;;8.63;5.43;;;;;5.30;102798.00;;;;5048748;28;20306;-71
2022/01/24 06:55:26;;;;;;;9.50;6.13;;;;;5.30;102803.00;;;;5054763;28;20227;-71
2022/01/24 06:58:13;;;;;;;10.60;5.37;;;;;5.30;102816.00;;;;5052072;28;20812;-72
2022/01/24 07:00:59;;;;;;;12.33;5.70;;;;;5.30;102798.00;;;;5041280;28;20228;-72
2022/01/24 07:03:46;;;;;;;9.87;5.23;;;;;5.30;102807.00;;;;5054355;28;20227;-70
2022/01/24 07:06:32;;;;;;;12.13;5.93;;;;;5.40;102809.00;;;;5056525;28;20782;-71
2022/01/24 07:09:20;;;;;;;9.10;5.40;;;;;5.40;102806.00;;;;5047614;28;20229;-71
2022/01/24 07:12:06;;;;;;;10.27;6.10;;;;;5.40;102817.00;;;;5056292;28;20286;-71
2022/01/24 07:14:53;;;;;;;9.37;5.70;;;;;5.40;102811.00;;;;5046881;28;20751;-71
2022/01/24 07:18:00;;;;;;;9.60;5.60;;;;;5.40;102815.00;;;;5048945;28;20367;-71
2022/01/24 07:20:46;;;;;;;10.00;5.87;;;;;5.40;102831.00;;;;5052066;28;20227;-70
2022/01/24 07:23:33;;;;;;;9.87;5.90;;;;;5.30;102828.00;;;;5050471;28;20367;-71
2022/01/24 07:26:20;;;;;;;9.90;5.60;;;;;5.40;102837.00;;;;5047721;28;20231;-71
2022/01/24 07:29:07;;;;;;;12.57;6.20;;;;;5.40;102836.00;;;;5052497;28;20232;-67
2022/01/24 07:31:53;;;;;;;9.40;5.77;;;;;5.40;102842.00;;;;5041431;28;20289;-68
2022/01/24 07:34:39;;;;;;;11.97;6.37;;;;;5.40;102844.00;;;;5039717;28;20305;-71
2022/01/24 07:37:26;;;;;;;11.30;6.10;;;;;5.40;102849.00;;;;5052090;28;20239;-71
2022/01/24 07:40:13;;;;;;;9.60;5.83;;;;;5.40;102839.00;;;;5050141;28;20279;-71
2022/01/24 07:43:10;;;;;;;11.30;6.57;;;;;5.40;102854.00;;;;5057428;28;20244;-71
2022/01/24 07:45:56;;;;;;;12.50;6.33;;;;;5.50;102855.00;;;;5049471;28;20284;-71
2022/01/24 07:48:42;;;;;;;11.33;6.67;;;;;5.50;102856.00;;;;5048066;28;20223;-70
2022/01/24 07:51:29;;;;;;;13.53;6.23;;;;;5.50;102850.00;;;;5050069;28;20343;-71
2022/01/24 07:54:15;;;;;;;11.20;6.87;;;;;5.50;102842.00;;;;5047819;28;20371;-68
2022/01/24 07:57:01;;;;;;;10.90;6.40;;;;;5.50;102847.00;;;;5042419;28;20359;-70
2022/01/24 07:59:49;;;;;;;10.40;6.43;;;;;5.60;102847.00;;;;5048416;28;21127;-69
2022/01/24 08:02:36;;;;;;;10.17;6.20;;;;;5.50;102855.00;;;;5052491;28;20247;-70
2022/01/24 08:05:23;;;;;;;9.20;6.53;;;;;5.50;102855.00;;;;5047576;28;20615;-70
2022/01/24 08:08:09;;;;;;;10.07;6.20;;;;;5.60;102855.00;;;;5054453;28;20286;-72
2022/01/24 08:10:56;;;;;;;10.50;6.90;;;;;5.50;102859.00;;;;5049204;28;20231;-71
2022/01/24 08:13:42;;;;;;;12.07;6.67;;;;;5.60;102849.00;;;;5044025;28;20233;-71
2022/01/24 08:16:29;;;;;;;10.57;7.03;;;;;5.60;102853.00;;;;5043968;28;20372;-72
2022/01/24 08:19:20;;;;;;;13.23;7.17;;;;;5.60;102846.00;;;;5053502;28;20327;-72
2022/01/24 08:22:12;;;;;;;12.77;7.60;;;;;5.60;102849.00;;;;5048198;28;20275;-72
2022/01/24 08:25:03;;;;;;;14.17;7.73;;;;;5.70;102844.00;;;;5051532;28;20269;-73
2022/01/24 08:27:49;;;;;;;11.57;7.00;;;;;5.60;102808.00;;;;5043449;28;20228;-73
2022/01/24 08:30:36;;;;;;;12.43;6.33;;;;;5.60;102840.00;;;;5053718;28;20235;-73
2022/01/24 08:33:24;;;;;;;12.87;6.73;;;;;5.60;102848.00;;;;5050641;28;20239;-72
2022/01/24 08:36:10;;;;;;;13.30;7.67;;;;;5.70;102845.00;;;;5055177;28;20234;-73
2022/01/24 08:39:02;;;;;;;9.70;6.47;;;;;5.60;102844.00;;;;5041295;28;20228;-73
2022/01/24 08:42:01;;;;;;;12.07;7.47;;;;;5.70;102848.00;;;;5047191;28;20375;-72
2022/01/24 08:47:51;;;;;;;14.80;7.77;;;;;5.80;102851.00;;;;5047064;28;20278;-71
2022/01/24 08:50:41;;;;;;;12.07;7.27;;;;;5.70;102824.00;;;;5053627;28;20366;-71
2022/01/24 08:53:31;;;;;;;11.23;6.47;;;;;5.70;102836.00;;;;5049412;28;20719;-72
2022/01/24 08:56:18;;;;;;;10.40;6.70;;;;;5.70;102847.00;;;;5052895;28;20228;-72
2022/01/24 08:59:06;;;;;;;10.47;7.30;;;;;5.80;102843.00;;;;5041898;28;20969;-72
2022/01/24 09:01:53;;;;;;;13.00;7.20;;;;;5.80;102839.00;;;;5051580;28;20228;-72
2022/01/24 09:04:40;;;;;;;14.97;8.50;;;;;6.00;102828.00;;;;5048510;28;20786;-70
2022/01/24 09:07:30;;;;;;;16.77;10.00;;;;;5.90;102840.00;;;;5058739;28;20230;-73
2022/01/24 09:10:17;;;;;;;18.80;10.50;;;;;5.90;102843.00;;;;5053657;28;20243;-73
2022/01/24 09:13:03;;;;;;;13.23;7.70;;;;;6.00;102850.00;;;;5046544;28;20311;-72
2022/01/24 09:15:50;;;;;;;12.43;7.83;;;;;5.90;102853.00;;;;5054256;28;20873;-70
2022/01/24 09:18:36;;;;;;;12.53;7.37;;;;;6.00;102853.00;;;;5042524;28;20314;-73
2022/01/24 09:21:23;;;;;;;13.27;6.97;;;;;6.00;102848.00;;;;5046970;28;20676;-72
2022/01/24 09:24:11;;;;;;;15.37;8.77;;;;;6.20;102839.00;;;;5047422;28;20271;-73
2022/01/24 09:26:57;;;;;;;15.80;9.17;;;;;6.10;102844.00;;;;5040109;28;20236;-72
2022/01/24 09:29:44;;;;;;;12.57;7.77;;;;;6.10;102849.00;;;;5052214;28;20604;-71
2022/01/24 09:32:30;;;;;;;12.30;7.43;;;;;6.10;102848.00;;;;5054342;28;20292;-70
2022/01/24 09:35:18;;;;;;;13.80;8.57;;;;;6.20;102845.00;;;;5045349;28;20228;-72
2022/01/24 09:38:05;;;;;;;16.83;8.80;;;;;6.20;102852.00;;;;5065452;28;20227;-68
2022/01/24 09:40:53;;;;;;;13.13;8.33;;;;;6.20;102843.00;;;;5042584;28;20233;-71
2022/01/24 09:43:40;;;;;;;14.93;9.30;;;;;6.20;102846.00;;;;5052628;28;20224;-71
2022/01/24 09:46:26;;;;;;;16.73;8.70;;;;;6.20;102843.00;;;;5047251;28;20236;-70
2022/01/24 09:49:13;;;;;;;13.47;8.40;;;;;6.30;102847.00;;;;5052235;28;20279;-70
2022/01/24 09:52:00;;;;;;;13.17;8.60;;;;;6.40;102845.00;;;;5046151;28;20742;-70
2022/01/24 09:54:46;;;;;;;15.13;8.77;;;;;6.50;102839.00;;;;5048975;28;20231;-69
2022/01/24 09:57:34;;;;;;;14.90;8.47;;;;;6.40;102838.00;;;;5038041;28;20299;-71
2022/01/24 10:00:23;;;;;;;12.70;7.97;;;;;6.40;102846.00;;;;5040471;28;20239;-71
2022/01/24 10:03:12;;;;;;;12.93;8.33;;;;;6.50;102843.00;;;;5040834;28;20860;-72
2022/01/24 10:06:18;;;;;;;15.20;8.23;;;;;6.40;102848.00;;;;5047890;28;20228;-72
2022/01/24 10:09:07;;;;;;;13.10;8.10;;;;;6.40;102852.00;;;;5040005;28;20224;-72
2022/01/24 10:12:11;;;;;;;15.30;9.10;;;;;6.40;102851.00;;;;5038979;28;20224;-70
2022/01/24 10:18:06;;;;;;;14.97;9.20;;;;;6.50;102846.00;;;;5047150;28;20223;-71
2022/01/24 10:20:56;;;;;;;16.27;9.33;;;;;6.60;102846.00;;;;5045202;28;20343;-71
2022/01/24 10:23:44;;;;;;;11.23;7.57;;;;;6.70;102849.00;;;;5039056;28;20878;-68
2022/01/24 10:26:31;;;;;;;13.33;8.37;;;;;6.50;102846.00;;;;5050749;28;20345;-71
2022/01/24 10:29:17;;;;;;;11.03;7.70;;;;;6.60;102842.00;;;;5056215;28;20342;-70
2022/01/24 10:32:05;;;;;;;14.43;8.23;;;;;6.50;102849.00;;;;5047962;28;20228;-71
2022/01/24 10:34:52;;;;;;;12.83;7.33;;;;;6.60;102841.00;;;;5038206;28;20322;-71
2022/01/24 10:37:38;;;;;;;11.67;8.33;;;;;6.60;102832.00;;;;5050481;28;20587;-71
2022/01/24 10:40:34;;;;;;;11.23;7.93;;;;;6.70;102839.00;;;;5045282;28;20285;-71
2022/01/24 10:43:23;;;;;;;12.67;7.93;;;;;6.70;102840.00;;;;5049172;28;20380;-72
2022/01/24 10:46:10;;;;;;;13.67;8.77;;;;;6.70;102839.00;;;;5054015;28;20296;-74
2022/01/24 10:49:06;;;;;;;16.87;9.30;;;;;6.80;102836.00;;;;5048347;28;20275;-73
2022/01/24 10:51:53;;;;;;;15.53;9.20;;;;;6.70;102844.00;;;;5049530;28;20229;-72
2022/01/24 10:54:39;;;;;;;13.57;8.40;;;;;6.70;102838.00;;;;5047689;28;20227;-72
2022/01/24 10:57:28;;;;;;;14.83;8.43;;;;;6.60;102841.00;;;;5044577;28;20797;-72
2022/01/24 11:00:18;;;;;;;14.67;9.23;;;;;6.70;102831.00;;;;5049238;28;20235;-72
2022/01/24 11:03:06;;;;;;;13.63;8.53;;;;;6.80;102825.00;;;;5039390;28;20271;-73
2022/01/24 11:05:54;;;;;;;11.17;8.07;;;;;6.60;102828.00;;;;5045714;28;20228;-73
2022/01/24 11:08:41;;;;;;;12.50;7.83;;;;;6.80;102816.00;;;;5045343;28;20221;-70
2022/01/24 11:11:27;;;;;;;12.53;8.27;;;;;6.80;102813.00;;;;5043000;28;20224;-72
2022/01/24 11:14:16;;;;;;;11.83;8.53;;;;;6.80;102806.00;;;;5044444;28;20853;-73
2022/01/24 11:17:05;;;;;;;12.77;8.20;;;;;6.70;102807.00;;;;5038954;28;20355;-72
2022/01/24 11:19:57;;;;;;;13.00;8.10;;;;;6.80;102796.00;;;;5045020;28;20267;-71
2022/01/24 11:22:52;;;;;;;11.37;7.83;;;;;6.90;102808.00;;;;5041406;28;20712;-73
2022/01/24 11:25:42;;;;;;;16.57;8.97;;;;;6.90;102806.00;;;;5054744;28;20224;-73
2022/01/24 11:28:29;;;;;;;14.57;7.97;;;;;6.90;102806.00;;;;5054383;28;20649;-71
2022/01/24 11:31:24;;;;;;;11.20;8.10;;;;;6.80;102804.00;;;;5047692;28;20252;-71
2022/01/24 11:34:16;;;;;;;13.17;8.67;;;;;6.70;102796.00;;;;5048002;28;20326;-72
2022/01/24 11:37:04;;;;;;;12.80;8.23;;;;;6.90;102795.00;;;;5043200;28;20394;-72
2022/01/24 11:39:55;;;;;;;14.13;8.63;;;;;7.00;102795.00;;;;5052149;28;20271;-72
2022/01/24 11:42:44;;;;;;;13.60;8.73;;;;;7.00;102803.00;;;;5052240;28;20747;-73
2022/01/24 11:45:59;;;;;;;11.53;8.40;;;;;6.80;102802.00;;;;5042739;28;20231;-75
2022/01/24 11:49:03;;;;;;;12.13;8.77;;;;;6.80;102797.00;;;;5040634;28;20283;-73
2022/01/24 11:51:50;;;;;;;12.07;8.70;;;;;6.90;102794.00;;;;5047710;28;20760;-74
2022/01/24 11:54:47;;;;;;;10.97;8.17;;;;;6.90;102791.00;;;;5048568;28;20245;-72
2022/01/24 11:57:37;;;;;;;11.83;8.33;;;;;6.70;102783.00;;;;5050373;28;20240;-73
2022/01/24 12:00:26;;;;;;;12.83;8.87;;;;;6.90;102785.00;;;;5046549;28;20578;-73
2022/01/24 12:03:16;;;;;;;15.20;9.10;;;;;6.80;102791.00;;;;5043432;28;20806;-74
2022/01/24 12:06:09;;;;;;;12.13;8.90;;;;;6.80;102787.00;;;;5050346;28;20362;-75
2022/01/24 12:09:24;;;;;;;15.37;9.70;;;;;6.90;102783.00;;;;5052734;28;20236;-71
2022/01/24 12:12:41;;;;;;;18.17;9.40;;;;;6.80;102786.00;;;;5045977;28;20236;-70
2022/01/24 12:16:04;;;;;;;13.93;9.60;;;;;6.80;102785.00;;;;5040663;28;20278;-70
2022/01/24 12:18:57;;;;;;;13.20;9.20;;;;;6.80;102779.00;;;;5041855;28;20271;-71
2022/01/24 12:21:44;;;;;;;13.00;9.30;;;;;6.80;102789.00;;;;5042966;28;20231;-73
2022/01/24 12:24:44;;;;;;;15.50;9.53;;;;;6.70;102780.00;;;;5065792;28;20738;-73
2022/01/24 12:27:30;;;;;;;13.07;8.80;;;;;6.80;102786.00;;;;5048293;28;20233;-72
2022/01/24 12:30:20;;;;;;;16.47;10.13;;;;;6.70;102781.00;;;;5049355;28;20622;-74
2022/01/24 12:33:06;;;;;;;12.77;9.50;;;;;6.80;102781.00;;;;5042361;28;20861;-73
2022/01/24 12:35:52;;;;;;;13.57;9.10;;;;;6.60;102775.00;;;;5049359;28;20498;-72
2022/01/24 12:38:43;;;;;;;14.87;9.53;;;;;6.60;102779.00;;;;5052465;28;20228;-72
2022/01/24 12:41:36;;;;;;;14.40;9.77;;;;;6.60;102776.00;;;;5049112;28;20708;-71
2022/01/24 12:47:33;;;;;;;13.73;9.67;;;;;6.80;102777.00;;;;5029770;28;20306;-70
2022/01/24 12:50:19;;;;;;;14.27;9.50;;;;;6.70;102774.00;;;;5053578;28;20231;-73
2022/01/24 12:53:14;;;;;;;14.87;9.67;;;;;6.60;102777.00;;;;5048237;28;20232;-73
2022/01/24 12:56:03;;;;;;;14.17;9.97;;;;;6.70;102778.00;;;;5051583;28;20703;-73
2022/01/24 12:58:51;;;;;;;15.70;9.90;;;;;6.70;102759.00;;;;5060774;28;20224;-73
2022/01/24 13:01:38;;;;;;;13.67;9.57;;;;;6.60;102781.00;;;;5051573;28;20316;-72
2022/01/24 13:04:33;;;;;;;14.27;9.47;;;;;6.70;102775.00;;;;5046798;28;20875;-74
2022/01/24 13:07:20;;;;;;;13.40;9.37;;;;;6.70;102780.00;;;;5052270;28;20220;-73
2022/01/24 13:10:10;;;;;;;15.60;9.47;;;;;6.80;102783.00;;;;5053864;28;20265;-72
2022/01/24 13:13:00;;;;;;;18.47;9.60;;;;;6.70;102785.00;;;;5048774;28;20714;-72
2022/01/24 13:22:07;;;;;;;16.03;10.03;;;;;6.70;102784.00;;;;5053379;28;20240;-72
2022/01/24 13:25:16;;;;;;;15.87;10.43;;;;;6.70;102780.00;;;;5049729;28;20233;-72
2022/01/24 13:28:05;;;;;;;16.63;9.77;;;;;6.80;102773.00;;;;5048853;28;20294;-73
2022/01/24 13:30:58;;;;;;;17.77;10.83;;;;;6.70;102773.00;;;;5046111;28;20320;-72
2022/01/24 13:33:48;;;;;;;20.13;11.77;;;;;6.70;102769.00;;;;5041588;28;20235;-71
2022/01/24 13:36:35;;;;;;;17.53;11.17;;;;;6.70;102774.00;;;;5061580;28;20228;-70
2022/01/24 13:39:23;;;;;;;16.60;10.00;;;;;6.50;102760.00;;;;5055744;28;20812;-70
2022/01/24 13:42:18;;;;;;;16.67;10.57;;;;;6.70;102765.00;;;;5041920;28;20596;-70
2022/01/24 13:45:05;;;;;;;16.10;10.70;;;;;6.60;102758.00;;;;5026074;28;20233;-70
2022/01/24 13:47:56;;;;;;;21.13;12.10;;;;;6.50;102767.00;;;;5045496;28;20228;-71
2022/01/24 13:50:49;;;;;;;14.87;10.13;;;;;6.50;102774.00;;;;5058698;28;20220;-71
2022/01/24 13:53:38;;;;;;;18.17;12.27;;;;;6.50;102761.00;;;;5052748;28;20338;-70
2022/01/24 13:56:29;;;;;;;17.23;11.40;;;;;6.50;102768.00;;;;5054827;28;20340;-71
2022/01/24 13:59:18;;;;;;;18.50;10.90;;;;;6.50;102754.00;;;;5045816;28;20322;-67
2022/01/24 14:02:09;;;;;;;15.27;10.53;;;;;6.50;102751.00;;;;5045948;28;20598;-72
2022/01/24 14:04:57;;;;;;;16.63;10.53;;;;;6.50;102755.00;;;;5048370;28;20685;-70
2022/01/24 14:07:43;;;;;;;16.23;10.50;;;;;6.50;102747.00;;;;5047400;28;20351;-71
2022/01/24 14:10:34;;;;;;;16.97;11.27;;;;;6.50;102746.00;;;;5046183;28;20352;-70
2022/01/24 14:13:24;;;;;;;18.23;11.03;;;;;6.40;102747.00;;;;5050400;28;20266;-70
2022/01/24 14:16:22;;;;;;;17.57;11.17;;;;;6.40;102753.00;;;;5045133;28;20237;-70
2022/01/24 14:19:09;;;;;;;16.80;10.97;;;;;6.40;102746.00;;;;5041008;28;20292;-72
2022/01/24 14:22:06;;;;;;;18.87;11.60;;;;;6.50;102758.00;;;;5039425;28;20225;-70
2022/01/24 14:24:58;;;;;;;16.87;10.60;;;;;6.50;102758.00;;;;5058530;28;20634;-66
2022/01/24 14:27:46;;;;;;;18.70;11.77;;;;;6.40;102749.00;;;;5037138;28;20221;-70
2022/01/24 14:30:55;;;;;;;19.37;12.40;;;;;6.40;102742.00;;;;5045018;28;20792;-71
2022/01/24 14:33:42;;;;;;;22.20;11.57;;;;;6.40;102721.00;;;;5045359;28;20666;-71
2022/01/24 14:36:34;;;;;;;19.33;11.47;;;;;6.40;102708.00;;;;5049166;28;20358;-68
2022/01/24 14:39:23;;;;;;;21.20;12.10;;;;;6.30;102744.00;;;;5045106;28;20228;-70
2022/01/24 14:42:13;;;;;;;18.23;11.00;;;;;6.40;102745.00;;;;5049066;28;20232;-71
2022/01/24 14:45:00;;;;;;;18.77;11.60;;;;;6.40;102738.00;;;;5039234;28;20727;-71
2022/01/24 14:47:48;;;;;;;21.00;12.20;;;;;6.30;102741.00;;;;5043761;28;20290;-69
2022/01/24 14:50:34;;;;;;;16.87;10.73;;;;;6.40;102733.00;;;;5035167;28;20236;-68
2022/01/24 14:53:28;;;;;;;19.07;11.37;;;;;6.40;102726.00;;;;5049516;28;20240;-71
2022/01/24 14:56:15;;;;;;;18.30;11.10;;;;;6.30;102722.00;;;;5044960;28;20236;-69
2022/01/24 14:59:02;;;;;;;18.53;11.20;;;;;6.30;102721.00;;;;5040835;28;20783;-68
2022/01/24 15:01:48;;;;;;;18.57;12.03;;;;;6.30;102728.00;;;;5060394;28;20307;-72
2022/01/24 15:04:36;;;;;;;20.37;11.80;;;;;6.30;102734.00;;;;5051745;28;20341;-73
2022/01/24 15:07:23;;;;;;;17.70;12.17;;;;;6.20;102730.00;;;;5055991;28;20750;-73
2022/01/24 15:10:10;;;;;;;19.43;11.27;;;;;6.30;102738.00;;;;5049730;28;20225;-73
2022/01/24 15:13:03;;;;;;;21.43;12.27;;;;;6.30;102734.00;;;;5050859;28;20816;-72